Terminal Aerodrome Forecast
Issued by NWS

Home | Current Version | Previous Version | Text Only | Print | Product List | Glossary On
Versions: 1 2 3 4 5 6 7 8 9 10 11 12 13 14 15 16
443
FTUS43 KIND 131123
TAFBMG
TAF
KBMG 131123Z 1312/1412 35008KT P6SM FEW040
     FM131500 32008KT P6SM FEW040 SCT250
     FM140000 VRB03KT P6SM BKN200
     FM140600 10005KT P6SM SCT050 OVC100
      AMD LTD TO CLD VIS AND WIND TIL 131400=

USA.gov is the U.S. government's official web portal to all federal, state and local government web resources and services.